Time;durP1;ratioP1;P1;durP2;ratioP2;P2;SDS_P1;SDS_P2;PMS_P1;PMS_P2;Temp;Humidity;BMP_temperature;BMP_pressure;BME280_temperature;BME280_humidity;BME280_pressure;Samples;Min_cycle;Max_cycle;Signal;HPM_P1;HPM_P2
2022/05/31 00:02:24;;;;;;;;;;;18.60;47.00;;;;;;5073344;28;20364;-63
2022/05/31 00:04:50;;;;;;;;;;;18.60;47.10;;;;;;5073192;28;19940;-63
2022/05/31 00:07:15;;;;;;;;;;;18.60;47.20;;;;;;5073271;28;20411;-62
2022/05/31 00:09:41;;;;;;;;;;;18.60;47.10;;;;;;5073353;28;20284;-63
2022/05/31 00:12:06;;;;;;;;;;;18.60;47.20;;;;;;5073194;28;19909;-63
2022/05/31 00:14:32;;;;;;;;;;;18.60;47.20;;;;;;5073121;28;19938;-62
2022/05/31 00:16:59;;;;;;;;;;;18.60;47.20;;;;;;5073131;28;20364;-62
2022/05/31 00:19:25;;;;;;;;;;;18.60;47.20;;;;;;5071957;28;19987;-63
2022/05/31 00:22:09;;;;;;;;;;;18.60;47.20;;;;;;5073317;28;20394;-63
2022/05/31 00:24:35;;;;;;;;;;;18.60;47.20;;;;;;5073015;28;19912;-63
2022/05/31 00:27:03;;;;;;;;;;;18.60;47.10;;;;;;5072000;28;19908;-63
2022/05/31 00:29:28;;;;;;;;;;;18.60;47.10;;;;;;5073297;28;19908;-62
2022/05/31 00:31:54;;;;;;;;;;;18.60;47.20;;;;;;5072982;28;20021;-63
2022/05/31 00:34:19;;;;;;;;;;;18.60;47.20;;;;;;5072986;28;20296;-62
2022/05/31 00:36:45;;;;;;;;;;;18.60;47.20;;;;;;5073014;28;20346;-62
2022/05/31 00:39:10;;;;;;;;;;;18.60;47.20;;;;;;5072317;28;20288;-62
2022/05/31 00:41:36;;;;;;;;;;;18.60;47.30;;;;;;5072938;28;19914;-63
2022/05/31 00:44:04;;;;;;;;;;;18.50;47.20;;;;;;5072793;28;19957;-63
2022/05/31 00:46:50;;;;;;;;;;;18.50;47.20;;;;;;5072915;28;20368;-63
2022/05/31 00:49:24;;;;;;;;;;;18.50;47.20;;;;;;5072207;28;19965;-63
2022/05/31 00:51:50;;;;;;;;;;;18.50;47.20;;;;;;5071675;28;19908;-62
2022/05/31 00:54:16;;;;;;;;;;;18.60;47.30;;;;;;5073124;28;19931;-63
2022/05/31 00:56:41;;;;;;;;;;;18.50;47.20;;;;;;5071994;28;20329;-62
2022/05/31 00:59:08;;;;;;;;;;;18.50;47.10;;;;;;5071576;28;19912;-63
2022/05/31 01:01:35;;;;;;;;;;;18.50;47.20;;;;;;5071547;28;20331;-63
2022/05/31 01:04:01;;;;;;;;;;;18.50;47.20;;;;;;5072521;28;19915;-63
2022/05/31 01:06:26;;;;;;;;;;;18.50;47.30;;;;;;5071513;28;19913;-63
2022/05/31 01:08:53;;;;;;;;;;;18.50;47.30;;;;;;5072052;28;20310;-62
2022/05/31 01:11:20;;;;;;;;;;;18.50;47.90;;;;;;5071446;28;20453;-62
2022/05/31 01:13:46;;;;;;;;;;;18.50;47.30;;;;;;5071671;28;19908;-62
2022/05/31 01:16:12;;;;;;;;;;;18.50;47.30;;;;;;5072385;28;19971;-63
2022/05/31 01:18:37;;;;;;;;;;;18.50;47.30;;;;;;5072659;28;19908;-62
2022/05/31 01:21:03;;;;;;;;;;;18.40;47.40;;;;;;5075001;28;19999;-62
2022/05/31 01:23:37;;;;;;;;;;;18.50;47.40;;;;;;5076338;28;19995;-62
2022/05/31 01:26:05;;;;;;;;;;;18.50;47.30;;;;;;5075218;28;19962;-62
2022/05/31 01:28:43;;;;;;;;;;;18.50;47.30;;;;;;5075004;28;19943;-62
2022/05/31 01:31:08;;;;;;;;;;;18.50;47.20;;;;;;5076336;28;19908;-62
2022/05/31 01:33:46;;;;;;;;;;;18.50;47.20;;;;;;5076159;28;19913;-63
2022/05/31 01:36:18;;;;;;;;;;;18.50;47.10;;;;;;5076422;28;19909;-63
2022/05/31 01:38:49;;;;;;;;;;;18.50;47.70;;;;;;5076515;28;19944;-62
2022/05/31 01:41:21;;;;;;;;;;;18.50;47.10;;;;;;5075877;28;19958;-63
2022/05/31 01:43:47;;;;;;;;;;;18.50;47.30;;;;;;5076172;28;19909;-63
2022/05/31 01:46:18;;;;;;;;;;;18.50;47.30;;;;;;5074790;28;19913;-63
2022/05/31 01:48:43;;;;;;;;;;;18.40;47.30;;;;;;5074727;28;19909;-62
2022/05/31 01:51:09;;;;;;;;;;;18.40;47.30;;;;;;5075864;28;20007;-63
2022/05/31 01:53:35;;;;;;;;;;;18.40;47.40;;;;;;5074671;28;19942;-62
2022/05/31 01:56:00;;;;;;;;;;;18.40;47.30;;;;;;5075779;28;19909;-62
2022/05/31 01:58:27;;;;;;;;;;;18.40;47.30;;;;;;5075674;28;19913;-63
2022/05/31 02:00:52;;;;;;;;;;;18.40;47.30;;;;;;5074534;28;19916;-62
2022/05/31 02:03:18;;;;;;;;;;;18.40;47.30;;;;;;5075523;28;19909;-62
2022/05/31 02:05:48;;;;;;;;;;;18.40;47.30;;;;;;5074460;28;20003;-63
2022/05/31 02:08:14;;;;;;;;;;;18.40;47.40;;;;;;5075849;28;19908;-62
2022/05/31 02:10:42;;;;;;;;;;;18.40;47.40;;;;;;5075514;28;20296;-62
2022/05/31 02:13:07;;;;;;;;;;;18.30;47.40;;;;;;5075496;28;19931;-62
2022/05/31 02:15:33;;;;;;;;;;;18.30;47.40;;;;;;5075250;28;20425;-63
2022/05/31 02:17:58;;;;;;;;;;;18.30;47.40;;;;;;5075390;28;19908;-62
2022/05/31 02:20:24;;;;;;;;;;;18.30;47.40;;;;;;5075274;28;19916;-63
2022/05/31 02:22:49;;;;;;;;;;;18.30;47.40;;;;;;5075320;28;20430;-63
2022/05/31 02:25:15;;;;;;;;;;;18.30;47.30;;;;;;5075153;28;20011;-63
2022/05/31 02:27:40;;;;;;;;;;;18.30;47.40;;;;;;5075206;28;20313;-62
2022/05/31 02:30:06;;;;;;;;;;;18.30;47.40;;;;;;5075081;28;20280;-63
2022/05/31 02:32:32;;;;;;;;;;;18.30;47.30;;;;;;5075201;28;20025;-63
2022/05/31 02:34:57;;;;;;;;;;;18.40;47.30;;;;;;5075045;28;20354;-62
2022/05/31 02:37:23;;;;;;;;;;;18.40;47.30;;;;;;5075008;28;19909;-62
2022/05/31 02:39:48;;;;;;;;;;;18.40;47.30;;;;;;5075512;28;19935;-62
2022/05/31 02:42:14;;;;;;;;;;;18.50;47.30;;;;;;5074924;28;19913;-63
2022/05/31 02:44:39;;;;;;;;;;;18.50;47.20;;;;;;5073441;28;20394;-62
2022/05/31 02:47:05;;;;;;;;;;;18.50;47.00;;;;;;5074904;28;19909;-62
2022/05/31 02:49:31;;;;;;;;;;;18.60;46.90;;;;;;5074727;28;19948;-62
2022/05/31 02:51:57;;;;;;;;;;;18.60;46.80;;;;;;5073550;28;19909;-62
2022/05/31 02:54:22;;;;;;;;;;;18.60;46.70;;;;;;5073499;28;19915;-62
2022/05/31 02:56:48;;;;;;;;;;;18.60;46.70;;;;;;5074662;28;19908;-62
2022/05/31 02:59:13;;;;;;;;;;;18.60;46.80;;;;;;5074512;28;19912;-62
2022/05/31 03:01:39;;;;;;;;;;;18.60;46.70;;;;;;5074501;28;20284;-63
2022/05/31 03:04:05;;;;;;;;;;;18.60;46.70;;;;;;5074585;28;19966;-63
2022/05/31 03:06:31;;;;;;;;;;;18.60;46.80;;;;;;5074408;28;19908;-63
2022/05/31 03:08:58;;;;;;;;;;;18.60;46.80;;;;;;5074676;28;19915;-63
2022/05/31 03:11:34;;;;;;;;;;;18.60;46.70;;;;;;5074428;28;20260;-62
2022/05/31 03:14:09;;;;;;;;;;;18.60;46.80;;;;;;5073013;28;19952;-62
2022/05/31 03:16:36;;;;;;;;;;;18.60;46.90;;;;;;5074013;28;20414;-63
2022/05/31 03:19:03;;;;;;;;;;;18.60;46.90;;;;;;5074127;28;19908;-63
2022/05/31 03:21:30;;;;;;;;;;;18.60;46.80;;;;;;5074155;28;20353;-63
2022/05/31 03:23:57;;;;;;;;;;;18.60;46.90;;;;;;5074025;28;19994;-62
2022/05/31 03:26:22;;;;;;;;;;;18.50;46.80;;;;;;5073955;28;19918;-62
2022/05/31 03:28:48;;;;;;;;;;;18.50;46.80;;;;;;5073843;28;19909;-63
2022/05/31 03:31:13;;;;;;;;;;;18.50;46.80;;;;;;5073869;28;19919;-62
2022/05/31 03:33:39;;;;;;;;;;;18.60;46.80;;;;;;5072512;28;20003;-63
2022/05/31 03:36:04;;;;;;;;;;;18.60;46.80;;;;;;5073819;28;19920;-62
2022/05/31 03:38:30;;;;;;;;;;;18.60;46.80;;;;;;5074272;28;19913;-62
2022/05/31 03:41:01;;;;;;;;;;;18.50;46.70;;;;;;5073407;28;19915;-63
2022/05/31 03:43:33;;;;;;;;;;;18.50;46.80;;;;;;5071796;28;19909;-62
2022/05/31 03:45:59;;;;;;;;;;;18.50;46.80;;;;;;5073549;28;19912;-62
2022/05/31 03:48:24;;;;;;;;;;;18.50;46.70;;;;;;5073464;28;20352;-63
2022/05/31 03:51:00;;;;;;;;;;;18.60;46.70;;;;;;5073336;28;19909;-63
2022/05/31 03:53:25;;;;;;;;;;;18.60;46.60;;;;;;5073366;28;19909;-63
2022/05/31 03:55:51;;;;;;;;;;;18.60;46.60;;;;;;5073657;28;20330;-63
2022/05/31 03:58:16;;;;;;;;;;;18.60;46.60;;;;;;5073347;28;19916;-63
2022/05/31 04:00:42;;;;;;;;;;;18.60;46.60;;;;;;5073379;28;20046;-63
2022/05/31 04:03:07;;;;;;;;;;;18.60;46.50;;;;;;5071933;28;19916;-63
2022/05/31 04:05:33;;;;;;;;;;;18.60;46.60;;;;;;5073043;28;19967;-62
2022/05/31 04:08:02;;;;;;;;;;;18.60;46.50;;;;;;5073688;28;19908;-63
2022/05/31 04:10:29;;;;;;;;;;;18.60;46.50;;;;;;5071839;28;19991;-62
2022/05/31 04:12:54;;;;;;;;;;;18.60;46.50;;;;;;5072977;28;19912;-63
2022/05/31 04:15:20;;;;;;;;;;;18.60;46.40;;;;;;5073022;28;19998;-63
2022/05/31 04:17:45;;;;;;;;;;;18.60;46.40;;;;;;5072914;28;19967;-62
2022/05/31 04:20:11;;;;;;;;;;;18.70;46.40;;;;;;5072834;28;19916;-62
2022/05/31 04:22:36;;;;;;;;;;;18.70;46.40;;;;;;5073252;28;19962;-62
2022/05/31 04:25:02;;;;;;;;;;;18.70;46.40;;;;;;5073081;28;19938;-63
2022/05/31 04:27:28;;;;;;;;;;;18.70;46.40;;;;;;5073220;28;20352;-62
2022/05/31 04:29:53;;;;;;;;;;;18.60;46.30;;;;;;5072048;28;19912;-63
2022/05/31 04:32:19;;;;;;;;;;;18.60;46.40;;;;;;5072892;28;19953;-63
2022/05/31 04:34:44;;;;;;;;;;;18.70;46.40;;;;;;5072977;28;19935;-63
2022/05/31 04:37:10;;;;;;;;;;;18.70;46.40;;;;;;5072894;28;19920;-63
2022/05/31 04:39:35;;;;;;;;;;;18.70;46.40;;;;;;5071906;28;19908;-63
2022/05/31 04:42:01;;;;;;;;;;;18.70;46.40;;;;;;5072773;28;19915;-62
2022/05/31 04:44:26;;;;;;;;;;;18.70;46.40;;;;;;5072590;28;19960;-63
2022/05/31 04:46:52;;;;;;;;;;;18.70;46.40;;;;;;5072889;28;20284;-63
2022/05/31 04:49:18;;;;;;;;;;;18.70;46.40;;;;;;5072658;28;19958;-63
2022/05/31 04:51:43;;;;;;;;;;;18.70;46.40;;;;;;5072794;28;19908;-63
2022/05/31 04:54:09;;;;;;;;;;;18.70;46.30;;;;;;5073054;28;19949;-63
2022/05/31 04:56:34;;;;;;;;;;;18.70;46.20;;;;;;5076185;28;19919;-63
2022/05/31 04:59:00;;;;;;;;;;;18.70;46.30;;;;;;5076881;28;19947;-63
2022/05/31 05:01:25;;;;;;;;;;;18.70;46.30;;;;;;5076793;28;19954;-62
2022/05/31 05:03:51;;;;;;;;;;;18.70;46.30;;;;;;5075667;28;19908;-62
2022/05/31 05:06:16;;;;;;;;;;;18.70;46.40;;;;;;5076585;28;19959;-63
2022/05/31 05:08:42;;;;;;;;;;;18.70;46.40;;;;;;5076683;28;19908;-63
2022/05/31 05:11:09;;;;;;;;;;;18.60;46.30;;;;;;5076416;28;19908;-62
2022/05/31 05:13:34;;;;;;;;;;;18.60;46.30;;;;;;5076664;28;19945;-63
2022/05/31 05:16:00;;;;;;;;;;;18.60;46.30;;;;;;5076329;28;20292;-63
2022/05/31 05:18:25;;;;;;;;;;;18.70;46.40;;;;;;5076370;28;20342;-63
2022/05/31 05:20:51;;;;;;;;;;;18.60;46.40;;;;;;5076313;28;20003;-62
2022/05/31 05:23:16;;;;;;;;;;;18.60;46.50;;;;;;5074856;28;19909;-63
2022/05/31 05:25:51;;;;;;;;;;;18.60;46.40;;;;;;5076095;28;19963;-63
2022/05/31 05:31:01;;;;;;;;;;;18.70;46.40;;;;;;5076174;28;20509;-63
2022/05/31 05:33:27;;;;;;;;;;;18.70;46.30;;;;;;5076049;28;19956;-62
2022/05/31 05:35:52;;;;;;;;;;;18.70;46.40;;;;;;5076200;28;20003;-62
2022/05/31 05:38:18;;;;;;;;;;;18.70;46.40;;;;;;5076102;28;19978;-63
2022/05/31 05:40:43;;;;;;;;;;;18.70;46.40;;;;;;5075815;28;20353;-63
2022/05/31 05:43:09;;;;;;;;;;;18.70;47.00;;;;;;5075942;28;19909;-62
2022/05/31 05:45:34;;;;;;;;;;;18.70;46.40;;;;;;5075805;28;19916;-62
2022/05/31 05:48:00;;;;;;;;;;;18.70;46.40;;;;;;5075869;28;20433;-62
2022/05/31 05:50:26;;;;;;;;;;;18.70;46.40;;;;;;5074240;28;20007;-63
2022/05/31 05:52:56;;;;;;;;;;;18.70;46.40;;;;;;5075655;28;19932;-63
2022/05/31 05:55:22;;;;;;;;;;;18.70;46.40;;;;;;5074503;28;20363;-63
2022/05/31 05:57:47;;;;;;;;;;;18.70;46.40;;;;;;5075524;28;19916;-63
2022/05/31 06:00:13;;;;;;;;;;;18.70;46.40;;;;;;5075543;28;19908;-63
2022/05/31 06:02:39;;;;;;;;;;;18.70;46.40;;;;;;5075762;28;19908;-63
2022/05/31 06:05:08;;;;;;;;;;;18.70;46.40;;;;;;5075421;28;19918;-63
2022/05/31 06:07:34;;;;;;;;;;;18.70;46.30;;;;;;5073676;28;19986;-63
2022/05/31 06:10:20;;;;;;;;;;;18.70;46.40;;;;;;5075337;28;19916;-63
2022/05/31 06:12:48;;;;;;;;;;;18.70;46.30;;;;;;5074726;28;19909;-62
2022/05/31 06:15:18;;;;;;;;;;;18.70;46.40;;;;;;5075265;28;19962;-62
2022/05/31 06:17:44;;;;;;;;;;;18.70;46.40;;;;;;5075100;28;19924;-62
2022/05/31 06:20:10;;;;;;;;;;;18.70;46.30;;;;;;5075110;28;19908;-63
2022/05/31 06:22:36;;;;;;;;;;;18.70;46.30;;;;;;5075166;28;19913;-63
2022/05/31 06:25:01;;;;;;;;;;;18.70;46.30;;;;;;5075155;28;19967;-62
2022/05/31 06:27:27;;;;;;;;;;;18.70;46.30;;;;;;5073944;28;19913;-63
2022/05/31 06:29:53;;;;;;;;;;;18.70;46.30;;;;;;5074996;28;20283;-62
2022/05/31 06:32:18;;;;;;;;;;;18.70;46.40;;;;;;5074210;28;19912;-63
2022/05/31 06:34:45;;;;;;;;;;;18.70;46.30;;;;;;5074734;28;19919;-63
2022/05/31 06:37:11;;;;;;;;;;;18.70;46.40;;;;;;5074864;28;19998;-62
2022/05/31 06:39:37;;;;;;;;;;;18.70;46.40;;;;;;5075106;28;19909;-62
2022/05/31 06:42:04;;;;;;;;;;;18.70;46.40;;;;;;5073359;28;19908;-63
2022/05/31 06:44:32;;;;;;;;;;;18.70;46.40;;;;;;5074279;28;20387;-63
2022/05/31 06:46:58;;;;;;;;;;;18.70;46.50;;;;;;5073513;28;20363;-63
2022/05/31 06:49:23;;;;;;;;;;;18.70;46.50;;;;;;5073127;28;19915;-63
2022/05/31 06:57:17;;;;;;;;;;;18.70;46.60;;;;;;5074505;28;19916;-63
2022/05/31 06:59:42;;;;;;;;;;;18.70;46.50;;;;;;5074585;28;19913;-63
2022/05/31 07:02:08;;;;;;;;;;;18.70;46.60;;;;;;5074374;28;19909;-63
2022/05/31 07:04:34;;;;;;;;;;;18.70;46.60;;;;;;5073988;28;20372;-63
2022/05/31 07:07:00;;;;;;;;;;;18.70;46.60;;;;;;5074488;28;20402;-63
2022/05/31 07:09:25;;;;;;;;;;;18.60;46.60;;;;;;5074894;28;19909;-64
2022/05/31 07:11:51;;;;;;;;;;;18.60;46.60;;;;;;5074237;28;20288;-63
2022/05/31 07:14:16;;;;;;;;;;;18.60;46.70;;;;;;5074135;28;19908;-63
2022/05/31 07:16:42;;;;;;;;;;;18.60;46.70;;;;;;5074010;28;20431;-63
2022/05/31 07:19:07;;;;;;;;;;;18.60;46.70;;;;;;5073064;28;20333;-63
2022/05/31 07:21:32;;;;;;;;;;;18.60;46.70;;;;;;5074039;28;20363;-63
2022/05/31 07:23:58;;;;;;;;;;;18.60;46.70;;;;;;5073857;28;19908;-62
2022/05/31 07:26:24;;;;;;;;;;;18.60;46.60;;;;;;5073812;28;19913;-63
2022/05/31 07:28:50;;;;;;;;;;;18.70;46.70;;;;;;5074034;28;20348;-63
2022/05/31 07:31:15;;;;;;;;;;;18.60;46.60;;;;;;5073704;28;19918;-62
2022/05/31 07:33:40;;;;;;;;;;;18.60;46.70;;;;;;5073801;28;20331;-63
2022/05/31 07:36:07;;;;;;;;;;;18.60;46.80;;;;;;5073809;28;19948;-63
2022/05/31 07:38:33;;;;;;;;;;;18.60;46.90;;;;;;5074071;28;19912;-63
2022/05/31 07:40:59;;;;;;;;;;;18.50;46.80;;;;;;5073830;28;19961;-63
2022/05/31 07:43:24;;;;;;;;;;;18.50;46.80;;;;;;5073551;28;19920;-63
2022/05/31 07:45:58;;;;;;;;;;;18.60;46.90;;;;;;5073406;28;19912;-63
2022/05/31 07:48:23;;;;;;;;;;;18.50;46.90;;;;;;5073626;28;19916;-63
2022/05/31 07:50:49;;;;;;;;;;;18.60;47.00;;;;;;5073426;28;19908;-63
2022/05/31 07:53:15;;;;;;;;;;;18.60;47.00;;;;;;5073358;28;19912;-63
2022/05/31 07:55:40;;;;;;;;;;;18.60;47.50;;;;;;5073413;28;20280;-63
2022/05/31 08:00:50;;;;;;;;;;;18.60;46.80;;;;;;5073319;28;19983;-62
2022/05/31 08:03:15;;;;;;;;;;;18.60;46.80;;;;;;5073021;28;19909;-62
2022/05/31 08:05:40;;;;;;;;;;;18.60;46.80;;;;;;5073125;28;19919;-63
2022/05/31 08:08:06;;;;;;;;;;;18.70;46.80;;;;;;5073418;28;19963;-63
2022/05/31 08:10:32;;;;;;;;;;;18.70;46.80;;;;;;5073403;28;19916;-63
2022/05/31 08:12:57;;;;;;;;;;;18.70;46.80;;;;;;5071897;28;19916;-63
2022/05/31 08:15:23;;;;;;;;;;;18.70;46.70;;;;;;5072225;28;19915;-63
2022/05/31 08:17:48;;;;;;;;;;;18.70;46.70;;;;;;5072928;28;20348;-63
2022/05/31 08:20:16;;;;;;;;;;;18.70;46.70;;;;;;5073030;28;19916;-63
2022/05/31 08:22:42;;;;;;;;;;;18.70;46.70;;;;;;5072852;28;19909;-62
2022/05/31 08:25:08;;;;;;;;;;;18.70;46.70;;;;;;5072881;28;20376;-63
2022/05/31 08:27:34;;;;;;;;;;;18.70;46.70;;;;;;5073249;28;19996;-63
2022/05/31 08:30:01;;;;;;;;;;;18.70;46.60;;;;;;5072977;28;19915;-62
2022/05/31 08:32:26;;;;;;;;;;;18.80;46.70;;;;;;5071871;28;19909;-63
2022/05/31 08:34:52;;;;;;;;;;;18.80;46.70;;;;;;5071696;28;20368;-63
2022/05/31 08:37:17;;;;;;;;;;;18.80;46.60;;;;;;5072776;28;19995;-63
2022/05/31 08:39:43;;;;;;;;;;;18.90;46.60;;;;;;5073042;28;19939;-62
2022/05/31 08:42:09;;;;;;;;;;;18.80;46.50;;;;;;5072974;28;19908;-63
2022/05/31 08:44:46;;;;;;;;;;;18.90;46.60;;;;;;5072918;28;19950;-62
2022/05/31 08:47:12;;;;;;;;;;;18.90;46.50;;;;;;5072804;28;20351;-63
2022/05/31 08:52:48;;;;;;;;;;;19.00;46.40;;;;;;5072413;28;19915;-63
2022/05/31 08:58:34;;;;;;;;;;;18.90;46.60;;;;;;5071774;28;19915;-63
2022/05/31 09:01:00;;;;;;;;;;;18.90;46.60;;;;;;5054858;28;20321;-63
2022/05/31 09:03:28;;;;;;;;;;;18.90;46.60;;;;;;5071169;28;19956;-62
2022/05/31 09:05:59;;;;;;;;;;;18.90;46.60;;;;;;5072507;28;19923;-63
2022/05/31 09:08:26;;;;;;;;;;;19.00;46.60;;;;;;5071435;28;19909;-62
2022/05/31 09:11:02;;;;;;;;;;;19.00;46.50;;;;;;5071132;28;19908;-62
2022/05/31 09:13:39;;;;;;;;;;;18.90;46.50;;;;;;5071525;28;20398;-63
2022/05/31 09:16:09;;;;;;;;;;;19.00;46.60;;;;;;5072477;28;19932;-63
2022/05/31 09:18:54;;;;;;;;;;;19.00;46.60;;;;;;5072774;28;20343;-63
2022/05/31 09:21:34;;;;;;;;;;;19.00;46.60;;;;;;5072452;28;19909;-63
2022/05/31 09:23:59;;;;;;;;;;;19.00;46.50;;;;;;5071243;28;19940;-63
2022/05/31 09:26:54;;;;;;;;;;;19.10;46.50;;;;;;5072235;28;19993;-62
2022/05/31 09:29:38;;;;;;;;;;;19.10;46.50;;;;;;5000657;28;19910;-63
2022/05/31 09:32:22;;;;;;;;;;;19.10;46.60;;;;;;5072347;28;19993;-63
2022/05/31 09:34:47;;;;;;;;;;;18.90;46.80;;;;;;5072239;28;19959;-62
2022/05/31 09:37:31;;;;;;;;;;;18.80;47.20;;;;;;5072492;28;20261;-62
2022/05/31 09:40:07;;;;;;;;;;;18.70;47.40;;;;;;5072569;28;19908;-63
2022/05/31 09:42:36;;;;;;;;;;;18.60;47.60;;;;;;5073883;28;19909;-63
2022/05/31 09:45:09;;;;;;;;;;;18.60;47.80;;;;;;5074561;28;19964;-62
2022/05/31 09:47:34;;;;;;;;;;;18.60;47.90;;;;;;5075722;28;19959;-63
2022/05/31 09:50:00;;;;;;;;;;;18.60;47.80;;;;;;5074894;28;19908;-63
2022/05/31 09:52:33;;;;;;;;;;;18.60;47.80;;;;;;5075785;28;19912;-63
2022/05/31 09:57:55;;;;;;;;;;;18.70;47.70;;;;;;5082344;28;20044;-62
2022/05/31 10:00:21;;;;;;;;;;;18.70;47.70;;;;;;5074208;28;19909;-63
2022/05/31 10:02:56;;;;;;;;;;;18.70;47.60;;;;;;5075649;28;19909;-63
2022/05/31 10:05:22;;;;;;;;;;;18.70;47.70;;;;;;5074103;28;19912;-63
2022/05/31 10:07:48;;;;;;;;;;;18.70;47.60;;;;;;5075844;28;19916;-64
2022/05/31 10:10:15;;;;;;;;;;;18.70;47.50;;;;;;5074135;28;19916;-63
2022/05/31 10:12:47;;;;;;;;;;;18.70;47.60;;;;;;5075430;28;20309;-63
2022/05/31 10:15:13;;;;;;;;;;;18.70;47.60;;;;;;5075496;28;19950;-63
2022/05/31 10:17:42;;;;;;;;;;;18.70;47.50;;;;;;5073835;28;19920;-62
2022/05/31 10:20:13;;;;;;;;;;;18.70;47.50;;;;;;5074293;28;19909;-63
2022/05/31 10:22:50;;;;;;;;;;;18.70;47.60;;;;;;5075260;28;19916;-63
2022/05/31 10:25:23;;;;;;;;;;;18.70;47.60;;;;;;5075199;28;19917;-63
2022/05/31 10:27:51;;;;;;;;;;;18.70;47.60;;;;;;5075434;28;20376;-63
2022/05/31 10:30:19;;;;;;;;;;;18.80;47.60;;;;;;5073948;28;19909;-63
2022/05/31 10:32:48;;;;;;;;;;;18.80;47.50;;;;;;5074997;28;20248;-63
2022/05/31 10:35:17;;;;;;;;;;;18.80;47.50;;;;;;5074891;28;19982;-63
2022/05/31 10:37:55;;;;;;;;;;;18.80;47.60;;;;;;5075324;28;19908;-63
2022/05/31 10:40:22;;;;;;;;;;;18.80;47.60;;;;;;5073932;28;20437;-63
2022/05/31 10:42:48;;;;;;;;;;;18.70;47.70;;;;;;5073620;28;19908;-63
2022/05/31 10:45:21;;;;;;;;;;;18.70;47.80;;;;;;5074431;28;19920;-63
2022/05/31 10:47:47;;;;;;;;;;;18.70;47.80;;;;;;5074964;28;20387;-63
2022/05/31 10:50:13;;;;;;;;;;;18.70;47.90;;;;;;5074998;28;20011;-63
2022/05/31 10:53:02;;;;;;;;;;;18.70;48.10;;;;;;5072107;28;19999;-63
2022/05/31 10:55:27;;;;;;;;;;;18.70;48.10;;;;;;5063806;28;19909;-63
2022/05/31 10:57:57;;;;;;;;;;;18.70;48.20;;;;;;5074537;28;19953;-63
2022/05/31 11:00:23;;;;;;;;;;;18.70;49.00;;;;;;5073217;28;19915;-63
2022/05/31 11:02:58;;;;;;;;;;;18.70;48.40;;;;;;5074212;28;20276;-63
2022/05/31 11:05:39;;;;;;;;;;;18.70;48.40;;;;;;5074289;28;19923;-63
2022/05/31 11:11:28;;;;;;;;;;;18.80;48.20;;;;;;5074155;28;19931;-63
2022/05/31 11:14:09;;;;;;;;;;;18.80;48.20;;;;;;5073907;28;19919;-63
2022/05/31 11:16:53;;;;;;;;;;;18.80;48.20;;;;;;5073867;28;19970;-63
2022/05/31 11:19:44;;;;;;;;;;;18.90;48.20;;;;;;5073984;28;19908;-63
2022/05/31 11:22:16;;;;;;;;;;;18.90;48.20;;;;;;5069991;28;19912;-64
2022/05/31 11:24:46;;;;;;;;;;;18.90;48.20;;;;;;5074030;28;19912;-64
2022/05/31 11:27:31;;;;;;;;;;;18.90;48.20;;;;;;5072900;28;19912;-64
2022/05/31 11:30:03;;;;;;;;;;;18.90;48.20;;;;;;5073864;28;19940;-63
2022/05/31 11:32:31;;;;;;;;;;;18.90;48.20;;;;;;5073670;28;19909;-63
2022/05/31 11:35:03;;;;;;;;;;;18.90;48.20;;;;;;5072525;28;19908;-63
2022/05/31 11:37:47;;;;;;;;;;;18.90;48.20;;;;;;5074094;28;19965;-63
2022/05/31 11:40:20;;;;;;;;;;;18.90;48.10;;;;;;5073619;28;19958;-63
2022/05/31 11:43:03;;;;;;;;;;;18.90;48.20;;;;;;5072505;28;20007;-63
2022/05/31 11:45:52;;;;;;;;;;;18.90;48.20;;;;;;5073500;28;20402;-63
2022/05/31 11:48:22;;;;;;;;;;;18.90;48.30;;;;;;5058852;28;19995;-64
2022/05/31 11:50:54;;;;;;;;;;;18.90;48.30;;;;;;5072402;28;20320;-63
2022/05/31 11:53:55;;;;;;;;;;;18.90;48.20;;;;;;5073415;28;19908;-63
2022/05/31 11:56:28;;;;;;;;;;;19.00;48.30;;;;;;4992073;28;19909;-64
2022/05/31 11:59:00;;;;;;;;;;;19.00;48.40;;;;;;5060997;28;20437;-63
2022/05/31 12:01:38;;;;;;;;;;;19.10;48.40;;;;;;5071943;28;19962;-63
2022/05/31 12:04:09;;;;;;;;;;;19.10;48.30;;;;;;5071764;28;19915;-63
2022/05/31 12:06:37;;;;;;;;;;;19.10;48.30;;;;;;5071941;28;20368;-63
2022/05/31 12:09:25;;;;;;;;;;;19.10;48.30;;;;;;5073629;28;19998;-63
2022/05/31 12:12:01;;;;;;;;;;;19.10;48.20;;;;;;5073233;28;20330;-63
2022/05/31 12:14:26;;;;;;;;;;;19.10;48.30;;;;;;5072958;28;19909;-63
2022/05/31 12:16:52;;;;;;;;;;;19.20;48.10;;;;;;5073043;28;19920;-63
2022/05/31 12:19:20;;;;;;;;;;;19.20;48.20;;;;;;5071780;28;19955;-63
2022/05/31 12:22:06;;;;;;;;;;;19.20;48.00;;;;;;5072963;28;19913;-63
2022/05/31 12:24:33;;;;;;;;;;;19.30;47.80;;;;;;5071773;28;20085;-63
2022/05/31 12:27:04;;;;;;;;;;;19.30;47.70;;;;;;5072469;28;19909;-63
2022/05/31 12:29:31;;;;;;;;;;;19.40;47.70;;;;;;5071564;28;19909;-64
2022/05/31 12:32:15;;;;;;;;;;;19.40;47.60;;;;;;5055094;28;19909;-64
2022/05/31 12:34:41;;;;;;;;;;;19.40;47.70;;;;;;5072816;28;19916;-64
2022/05/31 12:37:08;;;;;;;;;;;19.40;47.70;;;;;;5073002;28;19909;-64
2022/05/31 12:39:34;;;;;;;;;;;19.40;47.70;;;;;;5071981;28;19909;-64
2022/05/31 12:42:15;;;;;;;;;;;19.40;47.70;;;;;;5071850;28;19909;-64
2022/05/31 12:44:41;;;;;;;;;;;19.40;47.80;;;;;;5072808;28;19913;-64
2022/05/31 12:47:32;;;;;;;;;;;19.40;47.80;;;;;;5071568;28;19908;-64
2022/05/31 12:50:03;;;;;;;;;;;19.40;47.80;;;;;;5068869;28;19916;-64
2022/05/31 12:53:48;;;;;;;;;;;19.40;47.90;;;;;;5071730;28;19908;-63
2022/05/31 12:55:43;;;;;;;;;;;19.40;47.90;;;;;;5059998;28;19915;-63
2022/05/31 12:58:35;;;;;;;;;;;19.50;47.60;;;;;;5072892;28;20376;-64
2022/05/31 13:01:05;;;;;;;;;;;19.50;47.60;;;;;;5069174;28;19974;-64
2022/05/31 13:03:32;;;;;;;;;;;19.50;47.90;;;;;;5072492;28;20295;-63
2022/05/31 13:06:10;;;;;;;;;;;19.50;47.80;;;;;;5072792;28;19912;-64
2022/05/31 13:08:48;;;;;;;;;;;19.50;47.80;;;;;;5073210;28;19932;-64
2022/05/31 13:19:38;;;;;;;;;;;19.50;47.10;;;;;;5076255;28;20421;-64
2022/05/31 13:22:04;;;;;;;;;;;19.50;47.30;;;;;;5076697;28;19908;-63
2022/05/31 13:24:30;;;;;;;;;;;19.50;47.40;;;;;;5076353;28;19908;-64
2022/05/31 13:26:57;;;;;;;;;;;19.50;47.50;;;;;;5075023;28;20015;-64
2022/05/31 13:29:23;;;;;;;;;;;19.50;47.70;;;;;;5076216;28;20376;-63
2022/05/31 13:31:55;;;;;;;;;;;19.50;47.80;;;;;;5076195;28;19909;-63
2022/05/31 13:34:28;;;;;;;;;;;19.50;47.30;;;;;;5074825;28;19909;-64
2022/05/31 13:36:53;;;;;;;;;;;19.50;47.60;;;;;;5076111;28;20011;-63
2022/05/31 13:39:19;;;;;;;;;;;19.60;47.60;;;;;;5076335;28;19940;-63
2022/05/31 13:41:55;;;;;;;;;;;19.60;47.40;;;;;;5074792;28;20268;-63
2022/05/31 13:44:21;;;;;;;;;;;19.60;47.40;;;;;;5075972;28;19908;-63
2022/05/31 13:46:47;;;;;;;;;;;19.60;47.40;;;;;;5075033;28;19908;-63
2022/05/31 13:49:17;;;;;;;;;;;19.60;47.30;;;;;;5058047;28;19908;-63
2022/05/31 13:52:08;;;;;;;;;;;19.60;47.40;;;;;;5075777;28;19909;-63
2022/05/31 13:54:40;;;;;;;;;;;19.70;47.60;;;;;;5044511;28;20376;-63
2022/05/31 13:57:06;;;;;;;;;;;19.70;47.50;;;;;;5075547;28;19966;-63
2022/05/31 13:59:52;;;;;;;;;;;19.70;47.40;;;;;;5075349;28;19908;-64
2022/05/31 14:03:13;;;;;;;;;;;19.70;47.40;;;;;;5073678;28;19908;-63
2022/05/31 14:05:24;;;;;;;;;;;19.70;47.60;;;;;;5067305;28;19951;-63
2022/05/31 14:07:50;;;;;;;;;;;19.70;47.70;;;;;;5075048;28;19912;-63
2022/05/31 14:10:18;;;;;;;;;;;19.60;47.80;;;;;;5075597;28;20402;-63
2022/05/31 14:12:44;;;;;;;;;;;19.60;47.80;;;;;;5074604;28;20004;-63
2022/05/31 14:15:28;;;;;;;;;;;19.60;47.90;;;;;;5075622;28;20445;-64
2022/05/31 14:18:06;;;;;;;;;;;19.70;48.00;;;;;;5075654;28;19962;-63
2022/05/31 14:20:34;;;;;;;;;;;19.60;47.80;;;;;;5075679;28;19958;-63
2022/05/31 14:23:06;;;;;;;;;;;19.70;47.80;;;;;;5057364;28;20433;-63
2022/05/31 14:25:32;;;;;;;;;;;19.60;47.60;;;;;;5073938;28;19951;-63
2022/05/31 14:27:57;;;;;;;;;;;19.60;47.70;;;;;;5057045;28;19915;-63
2022/05/31 14:30:30;;;;;;;;;;;19.60;47.50;;;;;;5075246;28;19965;-63
2022/05/31 14:33:00;;;;;;;;;;;19.60;47.90;;;;;;5075382;28;20011;-63
2022/05/31 14:35:35;;;;;;;;;;;19.70;47.30;;;;;;5073792;28;20011;-63
2022/05/31 14:38:05;;;;;;;;;;;19.70;47.30;;;;;;5075572;28;19915;-63
2022/05/31 14:40:37;;;;;;;;;;;19.70;47.20;;;;;;5075083;28;19913;-63
2022/05/31 14:43:07;;;;;;;;;;;19.70;47.20;;;;;;5073858;28;19954;-63
2022/05/31 14:45:42;;;;;;;;;;;19.70;47.30;;;;;;5074893;28;20356;-64
2022/05/31 14:48:26;;;;;;;;;;;19.70;47.20;;;;;;5074844;28;20387;-63
2022/05/31 14:50:55;;;;;;;;;;;19.80;47.10;;;;;;5074718;28;19909;-63
2022/05/31 14:53:21;;;;;;;;;;;19.80;47.20;;;;;;5056739;28;19915;-63
2022/05/31 14:55:47;;;;;;;;;;;19.80;47.00;;;;;;5075135;28;19908;-63
2022/05/31 15:01:07;;;;;;;;;;;19.90;47.10;;;;;;5073645;28;19916;-63
2022/05/31 15:03:34;;;;;;;;;;;19.90;47.30;;;;;;5073451;28;20288;-63